createdAt,value
2019-01-05T00:00:10.500Z,25.97
2019-01-05T00:02:38.303Z,28.80
2019-01-05T00:05:35.976Z,28.30
2019-01-05T00:08:03.628Z,24.93
2019-01-05T00:12:37.430Z,28.13
2019-01-05T00:15:07.996Z,30.30
2019-01-05T00:17:35.897Z,26.57
2019-01-05T00:20:09.595Z,29.00
2019-01-05T00:22:41.428Z,29.00
2019-01-05T00:25:09.407Z,26.97
2019-01-05T00:27:36.233Z,28.30
2019-01-05T00:30:05.950Z,29.10
2019-01-05T00:32:39.101Z,26.23
2019-01-05T00:35:06.826Z,31.03
2019-01-05T00:37:34.655Z,26.73
2019-01-05T00:40:05.655Z,32.30
2019-01-05T00:42:41.416Z,25.10
2019-01-05T00:45:14.391Z,29.87
2019-01-05T00:47:43.167Z,27.30
2019-01-05T00:50:11.224Z,31.20
2019-01-05T00:52:39.179Z,27.83
2019-01-05T00:55:09.947Z,27.90
2019-01-05T00:57:36.948Z,25.73
2019-01-05T01:02:05.856Z,27.23
2019-01-05T01:04:33.721Z,34.23
2019-01-05T01:07:02.443Z,32.30
2019-01-05T01:09:30.262Z,32.53
2019-01-05T01:11:58.123Z,27.23
2019-01-05T01:14:25.920Z,27.63
2019-01-05T01:17:58.935Z,30.40
2019-01-05T01:20:28.632Z,29.50
2019-01-05T01:22:55.497Z,30.07
2019-01-05T01:27:24.279Z,31.20
2019-01-05T01:29:51.115Z,30.30
2019-01-05T01:34:24.826Z,33.87
2019-01-05T01:36:55.664Z,31.83
2019-01-05T01:39:28.107Z,32.40
2019-01-05T01:44:01.888Z,32.20
2019-01-05T01:46:28.732Z,26.50
2019-01-05T01:48:56.577Z,32.47
2019-01-05T01:51:23.396Z,29.30
2019-01-05T01:53:53.203Z,32.53
2019-01-05T01:56:23.964Z,31.40
2019-01-05T01:58:53.524Z,28.47
2019-01-05T02:01:24.137Z,32.07
2019-01-05T02:04:22.835Z,33.63
2019-01-05T02:06:50.587Z,26.13
2019-01-05T02:09:22.353Z,30.10
2019-01-05T02:11:55.039Z,26.47
2019-01-05T02:14:23.763Z,27.87
2019-01-05T02:17:02.875Z,28.87
2019-01-05T02:19:49.724Z,30.43
2019-01-05T02:24:48.674Z,30.23
2019-01-05T02:28:32.864Z,28.53
2019-01-05T02:33:20.404Z,28.03
2019-01-05T02:36:00.465Z,31.03
2019-01-05T02:38:45.281Z,34.07
2019-01-05T02:41:55.942Z,30.97
2019-01-05T02:45:32.076Z,30.73
2019-01-05T02:50:16.980Z,30.77
2019-01-05T02:53:57.788Z,32.90
2019-01-05T02:56:38.748Z,32.37
2019-01-05T03:00:23.070Z,31.83
2019-01-05T03:04:05.637Z,33.97
2019-01-05T03:06:47.576Z,29.00
2019-01-05T03:09:29.589Z,31.83
2019-01-05T03:14:15.375Z,30.77
2019-01-05T03:17:09.956Z,27.93
2019-01-05T03:19:53.585Z,30.23
2019-01-05T03:23:30.293Z,31.83
2019-01-05T03:28:13.721Z,33.27
2019-01-05T03:32:55.744Z,25.57
2019-01-05T03:35:39.301Z,31.17
2019-01-05T03:38:47.794Z,30.60
2019-01-05T03:41:27.594Z,27.33
2019-01-05T03:44:05.867Z,29.97
2019-01-05T03:46:51.881Z,29.80
2019-01-05T03:49:31.468Z,27.77
2019-01-05T03:54:21.456Z,31.10
2019-01-05T03:57:16.470Z,28.73
2019-01-05T04:00:28.967Z,28.77
2019-01-05T04:03:10.867Z,32.80
2019-01-05T04:05:51.384Z,27.70
2019-01-05T04:08:34.980Z,28.30
2019-01-05T04:11:31.710Z,28.03
2019-01-05T04:14:15.620Z,27.03
2019-01-05T04:16:57.621Z,32.10
2019-01-05T04:22:48.316Z,30.80
2019-01-05T04:25:28.223Z,31.90
2019-01-05T04:30:15.296Z,34.03
2019-01-05T04:33:10.278Z,35.70
2019-01-05T04:35:53.703Z,32.27
2019-01-05T04:38:34.890Z,34.93
2019-01-05T04:43:54.730Z,32.27
2019-01-05T04:46:36.514Z,30.30
2019-01-05T04:49:50.703Z,32.50
2019-01-05T04:52:34.696Z,33.87
2019-01-05T04:55:24.635Z,34.87
2019-01-05T05:00:11.505Z,34.67
2019-01-05T05:04:51.881Z,31.40
2019-01-05T05:09:41.497Z,32.67
2019-01-05T05:15:30.259Z,31.33
2019-01-05T05:19:02.819Z,30.73
2019-01-05T05:21:43.947Z,32.23
2019-01-05T05:26:33.063Z,30.93
2019-01-05T05:29:18.048Z,29.70
2019-01-05T05:34:03.439Z,31.70
2019-01-05T05:37:00.381Z,32.43
2019-01-05T05:39:43.151Z,32.17
2019-01-05T05:42:23.963Z,35.53
2019-01-05T05:45:09.241Z,30.67
2019-01-05T05:47:56.828Z,35.60
2019-01-05T05:50:34.835Z,29.67
2019-01-05T05:53:14.959Z,36.03
2019-01-05T05:56:08.465Z,32.10
2019-01-05T05:59:56.371Z,35.83
2019-01-05T06:02:40.155Z,32.23
2019-01-05T06:05:19.150Z,34.63
2019-01-05T06:08:21.156Z,35.03
2019-01-05T06:10:59.055Z,35.33
2019-01-05T06:13:57.146Z,33.43
2019-01-05T06:16:38.883Z,31.47
2019-01-05T06:19:19.578Z,36.87
2019-01-05T06:21:57.842Z,35.37
2019-01-05T06:24:47.671Z,34.53
2019-01-05T06:27:35.495Z,31.43
2019-01-05T06:30:19.234Z,36.27
2019-01-05T06:32:58.353Z,38.63
2019-01-05T06:36:09.328Z,34.07
2019-01-05T06:39:02.373Z,31.73
2019-01-05T06:43:45.382Z,35.67
2019-01-05T06:46:33.303Z,35.73
2019-01-05T06:51:46.407Z,39.87
2019-01-05T06:54:30.127Z,30.13
2019-01-05T06:59:16.851Z,29.77
2019-01-05T07:02:08.390Z,35.37
2019-01-05T07:04:49.255Z,31.70
2019-01-05T07:08:36.261Z,33.83
2019-01-05T07:11:32.421Z,25.30
2019-01-05T07:14:18.245Z,28.73
2019-01-05T07:16:57.157Z,32.33
2019-01-05T07:20:12.122Z,29.97
2019-01-05T07:24:56.199Z,31.00
2019-01-05T07:27:36.351Z,26.87
2019-01-05T07:32:37.172Z,30.50
2019-01-05T07:35:16.533Z,31.97
2019-01-05T07:40:01.556Z,26.90
2019-01-05T07:44:45.724Z,21.30
2019-01-05T07:47:41.034Z,26.33
2019-01-05T07:50:40.663Z,26.23
2019-01-05T07:53:24.016Z,26.63
2019-01-05T07:56:05.973Z,23.90
2019-01-05T07:58:51.192Z,26.00
2019-01-05T08:01:29.300Z,22.90
2019-01-05T08:04:09.823Z,26.80
2019-01-05T08:06:56.003Z,21.20
2019-01-05T08:13:40.918Z,28.07
2019-01-05T08:16:48.783Z,22.47
2019-01-05T08:21:35.555Z,24.43
2019-01-05T08:24:18.540Z,21.57
2019-01-05T08:27:12.376Z,22.43
2019-01-05T08:30:25.163Z,20.87
2019-01-05T08:33:12.828Z,18.20
2019-01-05T08:36:59.834Z,23.33
2019-01-05T08:41:44.153Z,20.00
2019-01-05T08:46:38.085Z,18.63
2019-01-05T08:51:22.255Z,16.77
2019-01-05T08:58:04.223Z,19.37
2019-01-05T09:00:45.314Z,14.07
2019-01-05T09:03:53.436Z,17.57
2019-01-05T09:06:44.345Z,17.17
2019-01-05T09:10:27.572Z,16.17
2019-01-05T09:14:11.517Z,15.27
2019-01-05T09:16:48.488Z,14.17
2019-01-05T09:20:19.657Z,15.57
2019-01-05T09:23:04.035Z,15.03
2019-01-05T09:25:59.016Z,15.57
2019-01-05T09:28:40.110Z,15.67
2019-01-05T09:33:20.185Z,18.03
2019-01-05T09:35:59.447Z,18.13
2019-01-05T09:38:57.149Z,18.20
2019-01-05T09:41:45.048Z,15.27
2019-01-05T09:47:29.804Z,15.80
2019-01-05T09:52:15.957Z,15.73
2019-01-05T09:55:59.901Z,16.57
2019-01-05T09:58:51.505Z,15.90
2019-01-05T10:02:02.290Z,16.30
2019-01-05T10:06:44.188Z,13.20
2019-01-05T10:11:26.346Z,15.40
2019-01-05T10:16:10.419Z,14.23
2019-01-05T10:19:00.563Z,15.17
2019-01-05T10:23:48.553Z,14.20
2019-01-05T10:26:28.111Z,14.43
2019-01-05T10:29:07.032Z,11.03
2019-01-05T10:32:37.437Z,11.93
2019-01-05T10:35:23.292Z,12.37
2019-01-05T10:38:13.119Z,12.33
2019-01-05T10:41:45.747Z,9.67
2019-01-05T10:46:27.263Z,10.33
2019-01-05T10:49:29.110Z,9.93
2019-01-05T10:54:08.741Z,9.43
2019-01-05T11:00:55.037Z,17.07
2019-01-05T11:03:33.971Z,7.03
2019-01-05T11:06:24.535Z,8.67
2019-01-05T11:09:07.551Z,6.73
2019-01-05T11:12:15.076Z,8.40
2019-01-05T11:14:58.852Z,7.63
2019-01-05T11:17:43.583Z,5.53
2019-01-05T11:20:36.011Z,7.00
2019-01-05T11:23:31.253Z,5.63
2019-01-05T11:26:14.227Z,6.60
2019-01-05T11:28:56.376Z,5.73
2019-01-05T11:34:13.943Z,5.67
2019-01-05T11:38:54.972Z,5.97
2019-01-05T11:41:34.248Z,6.83
2019-01-05T11:44:18.979Z,5.70
2019-01-05T11:49:14.165Z,5.27
2019-01-05T11:51:59.102Z,8.10
2019-01-05T11:56:39.059Z,6.17
2019-01-05T12:01:32.144Z,5.73
2019-01-05T12:08:19.632Z,7.30
2019-01-05T12:11:32.487Z,6.00
2019-01-05T12:14:11.159Z,5.97
2019-01-05T12:18:52.404Z,5.83
2019-01-05T12:23:38.548Z,5.80
2019-01-05T12:27:29.248Z,6.33
2019-01-05T12:30:08.263Z,5.43
2019-01-05T12:32:45.104Z,6.80
2019-01-05T12:36:33.265Z,4.67
2019-01-05T12:40:22.896Z,4.87
2019-01-05T12:43:02.128Z,7.20
2019-01-05T12:47:46.117Z,7.90
2019-01-05T12:50:31.705Z,4.80
2019-01-05T12:53:09.824Z,6.00
2019-01-05T12:57:53.888Z,5.73
2019-01-05T13:00:36.907Z,6.00
2019-01-05T13:03:34.476Z,8.80
2019-01-05T13:06:25.364Z,6.80
2019-01-05T13:10:10.343Z,5.40
2019-01-05T13:14:01.019Z,4.20
2019-01-05T13:16:40.421Z,5.70
2019-01-05T13:19:37.379Z,5.50
2019-01-05T13:24:31.116Z,4.97
2019-01-05T13:29:15.211Z,5.37
2019-01-05T13:31:53.550Z,4.30
2019-01-05T13:35:30.035Z,4.30
2019-01-05T13:38:09.524Z,6.30
2019-01-05T13:41:07.416Z,4.57
2019-01-05T13:44:24.123Z,2.93
2019-01-05T13:49:12.214Z,3.67
2019-01-05T13:52:00.923Z,3.80
2019-01-05T13:54:28.695Z,7.87
2019-01-05T13:57:19.638Z,3.67
2019-01-05T13:59:47.609Z,4.17
2019-01-05T14:02:16.398Z,4.10
2019-01-05T14:04:43.212Z,3.87
2019-01-05T14:07:10.937Z,4.53
2019-01-05T14:09:38.699Z,4.73
2019-01-05T14:12:05.497Z,4.37
2019-01-05T14:16:38.243Z,4.03
2019-01-05T14:19:06.027Z,4.40
2019-01-05T14:21:37.683Z,5.23
2019-01-05T14:24:06.354Z,3.87
2019-01-05T14:28:36.374Z,4.53
2019-01-05T14:33:08.168Z,3.30
2019-01-05T14:35:36.016Z,4.07
2019-01-05T14:38:02.820Z,5.17
2019-01-05T14:40:30.771Z,3.53
2019-01-05T14:43:00.572Z,4.23
2019-01-05T14:47:35.347Z,4.33
2019-01-05T14:50:05.937Z,3.97
2019-01-05T14:52:33.559Z,3.80
2019-01-05T14:55:12.376Z,3.57
2019-01-05T14:57:44.134Z,5.00
2019-01-05T15:00:13.443Z,3.70
2019-01-05T15:02:40.240Z,5.77
2019-01-05T15:05:09.445Z,4.37
2019-01-05T15:07:41.645Z,4.30
2019-01-05T15:10:10.587Z,3.50
2019-01-05T15:12:40.366Z,4.63
2019-01-05T15:15:07.226Z,4.17
2019-01-05T15:18:38.082Z,4.70
2019-01-05T15:21:06.052Z,3.77
2019-01-05T15:23:39.644Z,4.20
2019-01-05T15:26:11.374Z,5.17
2019-01-05T15:28:53.139Z,3.03
2019-01-05T15:31:21.072Z,3.60
2019-01-05T15:34:51.967Z,3.70
2019-01-05T15:37:25.693Z,3.97
2019-01-05T15:39:53.496Z,4.10
2019-01-05T15:42:21.324Z,3.20
2019-01-05T15:44:49.195Z,2.80
2019-01-05T15:47:28.850Z,2.97
2019-01-05T15:49:56.768Z,3.87
2019-01-05T15:52:27.412Z,3.53
2019-01-05T15:55:09.224Z,4.57
2019-01-05T15:57:38.987Z,4.80
2019-01-05T16:02:12.873Z,4.10
2019-01-05T16:06:45.655Z,4.23
2019-01-05T16:09:13.482Z,4.13
2019-01-05T16:11:46.139Z,4.73
2019-01-05T16:14:13.876Z,6.13
2019-01-05T16:16:46.451Z,4.00
2019-01-05T16:19:13.239Z,5.07
2019-01-05T16:21:48.951Z,5.37
2019-01-05T16:24:16.802Z,4.43
2019-01-05T16:27:14.454Z,4.07
2019-01-05T16:29:42.253Z,3.90
2019-01-05T16:32:09.057Z,4.33
2019-01-05T16:34:36.972Z,5.13
2019-01-05T16:37:04.776Z,4.83
2019-01-05T16:40:02.515Z,4.07
2019-01-05T16:42:31.115Z,4.27
2019-01-05T16:45:00.764Z,4.97
2019-01-05T16:49:35.468Z,5.13
2019-01-05T16:54:04.243Z,4.40
2019-01-05T16:56:36.933Z,3.50
2019-01-05T16:59:03.775Z,7.03
2019-01-05T17:01:34.455Z,4.27
2019-01-05T17:04:02.366Z,4.60
2019-01-05T17:08:31.099Z,5.17
2019-01-05T17:10:59.752Z,3.30
2019-01-05T17:13:26.579Z,4.47
2019-01-05T17:15:53.420Z,4.70
2019-01-05T17:18:26.227Z,4.43
2019-01-05T17:20:53.075Z,5.77
2019-01-05T17:25:21.920Z,4.77
2019-01-05T17:29:54.592Z,4.03
2019-01-05T17:32:22.211Z,4.47
2019-01-05T17:34:49.967Z,5.57
2019-01-05T17:37:17.721Z,4.87
2019-01-05T17:40:15.525Z,4.83
2019-01-05T17:42:44.204Z,4.37
2019-01-05T17:45:11.940Z,4.37
2019-01-05T17:47:40.590Z,4.80
2019-01-05T17:50:08.453Z,5.00
2019-01-05T17:52:36.375Z,5.17
2019-01-05T17:57:06.098Z,5.03
2019-01-05T17:59:33.952Z,5.27
2019-01-05T18:04:08.719Z,4.10
2019-01-05T18:06:42.528Z,4.03
2019-01-05T18:11:14.552Z,4.20
2019-01-05T18:13:42.172Z,4.27
2019-01-05T18:16:10.029Z,4.93
2019-01-05T18:18:37.838Z,6.00
2019-01-05T18:21:10.503Z,5.00
2019-01-05T18:25:40.146Z,4.83
2019-01-05T18:28:07.963Z,4.77
2019-01-05T18:30:40.782Z,4.17
2019-01-05T18:35:09.893Z,6.13
2019-01-05T18:37:37.621Z,6.57
2019-01-05T18:40:05.616Z,4.50
2019-01-05T18:43:38.421Z,5.73
2019-01-05T18:46:05.212Z,3.87
2019-01-05T18:48:39.822Z,4.57
2019-01-05T18:53:08.707Z,4.77
2019-01-05T18:55:36.527Z,5.00
2019-01-05T18:58:36.299Z,4.60
2019-01-05T19:01:04.090Z,4.37
2019-01-05T19:03:32.056Z,5.30
2019-01-05T19:06:13.637Z,5.00
2019-01-05T19:08:41.603Z,4.80
2019-01-05T19:11:09.208Z,4.20
2019-01-05T19:14:06.884Z,4.60
2019-01-05T19:18:39.615Z,5.70
2019-01-05T19:21:07.517Z,4.07
2019-01-05T19:23:43.121Z,4.60
2019-01-05T19:26:14.881Z,4.80
2019-01-05T19:28:41.682Z,5.67
2019-01-05T19:31:09.491Z,4.50
2019-01-05T19:33:42.255Z,4.80
2019-01-05T19:36:09.152Z,4.30
2019-01-05T19:38:37.023Z,5.73
2019-01-05T19:41:06.665Z,5.00
2019-01-05T19:43:34.446Z,5.23
2019-01-05T19:46:02.256Z,4.13
2019-01-05T19:48:30.055Z,6.00
2019-01-05T19:50:59.860Z,4.10
2019-01-05T19:54:32.519Z,6.10
2019-01-05T19:57:00.424Z,5.40
2019-01-05T19:59:28.410Z,5.67
2019-01-05T20:01:56.225Z,4.67
2019-01-05T20:04:40.871Z,4.37
2019-01-05T20:07:08.652Z,4.57
2019-01-05T20:11:41.247Z,5.80
2019-01-05T20:14:08.894Z,4.67
2019-01-05T20:16:38.752Z,4.47
2019-01-05T20:21:08.524Z,4.70
2019-01-05T20:23:43.159Z,4.70
2019-01-05T20:28:12.863Z,4.33
2019-01-05T20:30:51.508Z,4.90
2019-01-05T20:33:26.279Z,5.83
2019-01-05T20:35:59.080Z,5.27
2019-01-05T20:38:27.095Z,3.77
2019-01-05T20:40:55.103Z,4.60
2019-01-05T20:43:22.947Z,5.40
2019-01-05T20:45:53.571Z,4.43
2019-01-05T20:48:21.475Z,4.57
2019-01-05T20:50:49.270Z,4.60
2019-01-05T20:55:17.909Z,5.10
2019-01-05T20:57:48.615Z,5.33
2019-01-05T21:07:13.412Z,4.63
2019-01-05T21:11:48.260Z,5.30
2019-01-05T21:14:16.076Z,5.30
2019-01-05T21:18:45.031Z,4.77
2019-01-05T21:21:13.816Z,6.30
2019-01-05T21:25:44.496Z,5.53
2019-01-05T21:28:11.325Z,6.40
2019-01-05T21:30:57.020Z,5.03
2019-01-05T21:33:26.710Z,5.03
2019-01-05T21:36:04.387Z,5.17
2019-01-05T21:38:32.403Z,6.00
2019-01-05T21:43:06.138Z,5.30
2019-01-05T21:45:33.976Z,5.63
2019-01-05T21:48:01.781Z,5.83
2019-01-05T21:50:29.599Z,5.37
2019-01-05T21:53:01.317Z,6.50
2019-01-05T21:55:29.060Z,7.00
2019-01-05T21:57:59.636Z,5.17
2019-01-05T22:00:27.318Z,7.57
2019-01-05T22:02:56.064Z,4.73
2019-01-05T22:05:23.906Z,5.63
2019-01-05T22:08:10.648Z,6.23
2019-01-05T22:12:39.509Z,7.13
2019-01-05T22:15:07.370Z,4.70
2019-01-05T22:17:34.195Z,5.63
2019-01-05T22:20:05.926Z,5.93
2019-01-05T22:22:33.751Z,5.90
2019-01-05T22:25:01.658Z,5.33
2019-01-05T22:27:35.480Z,5.50
2019-01-05T22:32:08.217Z,5.53
2019-01-05T22:34:36.110Z,5.77
2019-01-05T22:37:10.857Z,5.63
2019-01-05T22:41:42.588Z,5.83
2019-01-05T22:44:09.432Z,6.93
2019-01-05T22:46:36.256Z,6.27
2019-01-05T22:49:09.077Z,5.20
2019-01-05T22:51:50.829Z,5.80
2019-01-05T22:54:18.487Z,5.77
2019-01-05T22:56:54.223Z,6.73
2019-01-05T22:59:21.030Z,6.17
2019-01-05T23:01:48.796Z,5.33
2019-01-05T23:04:17.469Z,5.17
2019-01-05T23:06:48.184Z,6.63
2019-01-05T23:09:18.864Z,5.43
2019-01-05T23:11:46.668Z,6.00
2019-01-05T23:14:18.287Z,6.33
2019-01-05T23:16:46.117Z,5.87
2019-01-05T23:19:18.939Z,6.73
2019-01-05T23:21:50.647Z,6.20
2019-01-05T23:24:33.399Z,7.03
2019-01-05T23:27:17.123Z,6.77
2019-01-05T23:31:45.962Z,6.37
2019-01-05T23:34:27.843Z,6.47
2019-01-05T23:37:14.663Z,7.27
2019-01-05T23:39:47.471Z,5.90
2019-01-05T23:42:23.096Z,5.87
2019-01-05T23:44:49.939Z,7.13
2019-01-05T23:49:19.656Z,4.73
2019-01-05T23:53:51.368Z,6.63
2019-01-05T23:56:20.057Z,5.57
2019-01-05T23:58:47.737Z,5.40
